Terminal Aerodrome Forecast
Issued by NWS

Home | Current Version | Previous Version | Text Only | Print | Product List | Glossary On
Versions: 1 2 3 4 5 6 7 8 9 10 11 12 13 14 15 16 17 18 19
816
FTUS41 KCAR 291733
TAFBHB
TAF
KBHB 291733Z 2918/3018 13007KT P6SM BKN035
     FM300000 13007KT P6SM OVC025
     FM300300 13007KT 5SM BR OVC003
     FM300800 20004KT 2SM BR OVC003
     FM301400 21005KT 3SM -SHRA OVC003=

USA.gov is the U.S. government's official web portal to all federal, state and local government web resources and services.